Time;durP1;ratioP1;P1;durP2;ratioP2;P2;SDS_P1;SDS_P2;PMS_P1;PMS_P2;Temp;Humidity;BMP_temperature;BMP_pressure;BME280_temperature;BME280_humidity;BME280_pressure;Samples;Min_cycle;Max_cycle;Signal;HPM_P1;HPM_P2
2022/02/06 00:01:17;;;;;;;9.10;1.85;;;6.20;99.90;;;6.60;100.00;100198.34;5052178;28;20147;-77
2022/02/06 00:03:43;;;;;;;5.97;1.63;;;6.10;99.90;;;6.60;100.00;100187.25;5033825;28;20082;-77
2022/02/06 00:06:15;;;;;;;5.57;1.80;;;6.10;99.90;;;6.56;100.00;100180.75;5051556;28;20431;-76
2022/02/06 00:08:41;;;;;;;9.38;2.00;;;6.10;99.90;;;6.58;100.00;100182.03;5051277;28;20396;-76
2022/02/06 00:11:09;;;;;;;7.97;1.80;;;6.10;99.90;;;6.55;100.00;100176.38;5051597;28;20025;-77
2022/02/06 00:13:35;;;;;;;7.65;2.03;;;6.00;99.90;;;6.47;100.00;100166.97;5051685;28;20123;-77
2022/02/06 00:16:09;;;;;;;9.18;2.65;;;6.00;99.90;;;6.41;100.00;100154.47;5051763;28;20036;-78
2022/02/06 00:18:35;;;;;;;6.13;1.63;;;6.00;99.90;;;6.52;100.00;100168.75;5033623;28;20025;-78
2022/02/06 00:21:06;;;;;;;5.50;2.00;;;6.00;99.90;;;6.46;100.00;100168.13;5051535;28;20025;-76
2022/02/06 00:23:39;;;;;;;9.95;2.03;;;6.00;99.90;;;6.42;100.00;100142.25;5051189;28;20056;-75
2022/02/06 00:26:12;;;;;;;14.55;1.90;;;6.00;99.90;;;6.34;100.00;100132.84;5057423;28;20028;-76
2022/02/06 00:28:47;;;;;;;7.57;1.98;;;5.90;99.90;;;6.43;100.00;100131.94;5053839;28;20060;-77
2022/02/06 00:39:10;;;;;;;7.60;1.92;;;6.00;99.90;;;6.57;100.00;100110.25;5071183;28;20088;-77
2022/02/06 00:41:37;;;;;;;11.98;2.45;;;6.00;99.90;;;6.55;100.00;100126.44;5071143;28;20060;-76
2022/02/06 00:44:07;;;;;;;7.93;1.95;;;6.00;99.90;;;6.47;100.00;100094.84;5053204;28;20028;-76
2022/02/06 00:46:38;;;;;;;7.55;2.13;;;6.00;99.90;;;6.54;100.00;100084.00;5053501;28;20024;-76
2022/02/06 00:49:14;;;;;;;9.70;2.25;;;6.10;99.90;;;6.55;100.00;100109.78;5071074;28;20024;-75
2022/02/06 00:51:59;;;;;;;7.05;2.13;;;6.00;99.90;;;6.58;100.00;100112.66;5053534;28;20089;-76
2022/02/06 00:54:24;;;;;;;9.98;2.47;;;6.10;99.90;;;6.56;100.00;100073.34;5072075;28;20411;-77
2022/02/06 00:56:51;;;;;;;12.05;2.72;;;6.10;99.90;;;6.61;100.00;100095.34;5074420;28;20021;-77
2022/02/06 00:59:17;;;;;;;8.32;1.95;;;6.20;99.90;;;6.71;100.00;100102.41;5075220;28;20035;-76
2022/02/06 01:01:44;;;;;;;10.57;2.60;;;6.20;99.90;;;6.69;100.00;100088.03;5075355;28;20028;-75
2022/02/06 01:04:14;;;;;;;10.18;2.38;;;6.20;99.90;;;6.76;100.00;100075.22;5074974;28;20032;-76
2022/02/06 01:06:41;;;;;;;8.40;2.25;;;6.10;99.90;;;6.69;100.00;100080.53;5073622;28;20032;-77
2022/02/06 01:09:08;;;;;;;10.13;2.38;;;6.10;99.90;;;6.61;100.00;100083.44;5075026;28;20025;-77
2022/02/06 01:11:36;;;;;;;11.52;2.53;;;6.20;99.90;;;6.65;100.00;100062.13;5057411;28;20020;-76
2022/02/06 01:17:18;;;;;;;7.72;2.50;;;6.20;99.90;;;6.73;100.00;100055.69;5037259;28;20428;-75
2022/02/06 01:20:09;;;;;;;10.75;2.40;;;6.20;99.90;;;6.70;100.00;100051.63;5074400;28;20024;-76
2022/02/06 01:22:37;;;;;;;11.15;2.58;;;6.20;99.90;;;6.73;100.00;100036.25;5075199;28;20028;-78
2022/02/06 01:25:12;;;;;;;8.90;2.25;;;6.20;99.90;;;6.66;100.00;100036.84;5074610;28;20028;-78
2022/02/06 01:30:21;;;;;;;11.88;2.70;;;6.20;99.90;;;6.74;100.00;100033.13;5054172;28;20021;-75
2022/02/06 01:33:05;;;;;;;9.32;3.55;;;6.20;99.90;;;6.73;100.00;100022.38;5054201;28;20017;-76
2022/02/06 01:35:42;;;;;;;6.63;2.55;;;6.20;99.90;;;6.73;100.00;100019.59;5055287;28;20607;-75
2022/02/06 01:38:24;;;;;;;11.02;2.50;;;6.20;99.90;;;6.77;100.00;100004.69;5054453;28;20029;-78
2022/02/06 01:41:08;;;;;;;6.88;2.28;;;6.20;99.90;;;6.82;100.00;100001.66;5054625;28;20029;-76
2022/02/06 01:43:46;;;;;;;12.02;3.03;;;6.30;99.90;;;6.81;100.00;100002.81;5054312;28;20480;-75
2022/02/06 02:05:48;;;;;;;6.95;2.13;;;6.40;99.90;;;6.99;100.00;99989.50;5054509;28;20060;-75
2022/02/06 02:22:37;;;;;;;8.90;2.42;;;6.50;99.90;;;6.98;100.00;99939.88;5059440;28;20054;-74
2022/02/06 02:28:29;;;;;;;9.05;3.00;;;6.40;99.90;;;6.94;100.00;99947.28;5035881;28;20088;-77
2022/02/06 02:31:22;;;;;;;5.05;2.72;;;6.40;99.90;;;6.90;100.00;99930.53;5034422;28;20136;-76
2022/02/06 02:47:46;;;;;;;9.20;2.47;;;6.40;99.90;;;6.91;100.00;99901.59;5034365;28;20095;-77
2022/02/06 02:50:19;;;;;;;11.10;3.25;;;6.40;99.90;;;6.88;100.00;99885.66;5034235;28;20026;-76
2022/02/06 02:55:54;;;;;;;8.98;2.22;;;6.50;99.90;;;6.96;100.00;99884.72;5034489;28;20124;-77
2022/02/06 02:58:29;;;;;;;9.50;3.45;;;6.50;99.90;;;6.99;100.00;99891.53;5034120;28;20388;-77
2022/02/06 03:03:41;;;;;;;12.07;2.30;;;6.50;99.90;;;6.98;100.00;99867.69;5033115;28;20083;-77
2022/02/06 03:06:09;;;;;;;12.40;2.80;;;6.50;99.90;;;7.05;100.00;99873.44;5033430;28;20032;-76
2022/02/06 03:08:37;;;;;;;9.77;2.55;;;6.50;99.90;;;7.01;100.00;99858.66;5033926;28;20520;-75
2022/02/06 03:11:09;;;;;;;7.25;2.28;;;6.50;99.90;;;7.02;100.00;99863.06;5034641;28;20029;-77
2022/02/06 03:14:02;;;;;;;7.70;2.05;;;6.50;99.90;;;7.04;100.00;99852.38;5034235;28;20029;-76
2022/02/06 03:16:35;;;;;;;10.88;2.67;;;6.50;99.90;;;7.01;100.00;99845.59;5033993;28;20088;-77
2022/02/06 03:19:07;;;;;;;5.82;2.30;;;6.50;99.90;;;7.03;100.00;99823.03;5032584;28;20100;-77
2022/02/06 03:21:35;;;;;;;8.63;2.25;;;6.50;99.90;;;7.01;100.00;99830.88;5032339;28;20128;-78
2022/02/06 03:24:24;;;;;;;9.73;2.80;;;6.50;99.90;;;7.09;100.00;99846.59;5033737;28;20038;-77
2022/02/06 03:26:54;;;;;;;6.90;2.28;;;6.50;99.90;;;7.06;100.00;99839.78;5064116;28;20020;-76
2022/02/06 03:29:24;;;;;;;10.85;2.75;;;6.60;99.90;;;7.08;100.00;99819.97;5079776;28;20024;-80
2022/02/06 03:31:53;;;;;;;11.60;2.72;;;6.50;99.90;;;7.08;100.00;99822.75;5075676;28;20036;-78
2022/02/06 03:34:24;;;;;;;9.27;2.60;;;6.60;99.90;;;7.07;100.00;99821.13;5055475;28;20101;-76
2022/02/06 03:36:50;;;;;;;6.93;2.20;;;6.60;99.90;;;7.12;100.00;99818.13;5056252;28;20036;-76
2022/02/06 03:39:17;;;;;;;7.63;2.15;;;6.60;99.90;;;7.09;100.00;99810.50;5055461;28;20526;-76
2022/02/06 03:41:54;;;;;;;10.63;3.00;;;6.60;99.90;;;7.11;100.00;99800.66;5074864;28;20029;-78
2022/02/06 03:44:39;;;;;;;7.15;2.38;;;6.60;99.90;;;7.09;100.00;99811.31;5072754;28;20483;-78
2022/02/06 03:47:32;;;;;;;9.40;3.17;;;6.60;99.90;;;7.14;100.00;99819.38;5074262;28;20086;-78
2022/02/06 03:49:57;;;;;;;7.35;2.40;;;6.60;99.90;;;7.11;100.00;99805.38;5073215;28;20107;-77
2022/02/06 03:52:33;;;;;;;6.32;2.25;;;6.60;99.90;;;7.13;100.00;99809.41;5055691;28;20035;-78
2022/02/06 03:55:03;;;;;;;11.68;3.20;;;6.60;99.90;;;7.13;100.00;99814.16;5074475;28;20029;-76
2022/02/06 03:57:29;;;;;;;6.95;2.50;;;6.50;99.90;;;7.04;100.00;99800.44;5072699;28;20083;-76
2022/02/06 03:59:56;;;;;;;9.57;2.50;;;6.60;99.90;;;7.08;100.00;99787.47;5074244;28;20040;-79
2022/02/06 04:02:25;;;;;;;8.00;2.53;;;6.50;99.90;;;7.11;100.00;99783.19;5074178;28;20067;-77
2022/02/06 04:04:51;;;;;;;9.90;2.10;;;6.60;99.90;;;7.16;100.00;99789.28;5073389;28;20032;-76
2022/02/06 04:07:17;;;;;;;5.70;2.65;;;6.60;99.90;;;7.13;100.00;99792.75;5071888;28;20028;-76
2022/02/06 04:09:49;;;;;;;4.72;2.47;;;6.60;99.90;;;7.08;100.00;99795.00;5073202;28;20040;-78
2022/02/06 04:12:17;;;;;;;6.88;2.17;;;6.60;99.90;;;7.07;100.00;99762.84;5072171;28;20032;-75
2022/02/06 04:14:54;;;;;;;11.18;2.78;;;6.60;99.90;;;7.10;100.00;99773.22;5109543;22;20052;-78
2022/02/06 04:17:43;;;;;;;8.95;2.25;;;6.50;99.90;;;7.06;100.00;99784.25;5049917;28;20045;-80
2022/02/06 04:20:10;;;;;;;8.27;2.05;;;6.50;99.90;;;7.13;100.00;99765.00;5066639;28;20059;-78
2022/02/06 04:22:36;;;;;;;6.25;2.55;;;6.60;99.90;;;7.13;100.00;99772.50;5065793;28;20056;-81
2022/02/06 04:25:03;;;;;;;8.63;2.03;;;6.60;99.90;;;7.16;100.00;99780.16;5046876;28;20032;-81
2022/02/06 04:27:30;;;;;;;9.38;1.98;;;6.50;99.90;;;7.20;100.00;99767.16;5081331;28;20091;-82
2022/02/06 04:29:57;;;;;;;7.53;1.83;;;6.50;99.90;;;7.15;100.00;99751.56;5088735;28;20046;-81
2022/02/06 04:32:27;;;;;;;5.03;2.13;;;6.60;99.90;;;7.14;100.00;99763.03;5091290;28;20043;-80
2022/02/06 04:34:55;;;;;;;8.35;2.40;;;6.60;99.90;;;7.22;100.00;99770.41;5090979;28;20451;-79
2022/02/06 05:14:40;;;;;;;5.03;1.92;;;6.70;99.90;;;7.27;100.00;99698.72;5086210;28;20316;-78
2022/02/06 05:27:58;;;;;;;5.18;1.98;;;6.70;99.90;;;7.32;100.00;99681.75;5071458;28;20467;-78
2022/02/06 05:30:51;;;;;;;6.90;2.00;;;6.70;99.90;;;7.30;100.00;99661.09;5069709;28;20055;-78
2022/02/06 05:33:17;;;;;;;6.13;1.90;;;6.70;99.90;;;7.36;100.00;99670.75;5067531;28;20037;-80
2022/02/06 05:35:43;;;;;;;9.65;2.08;;;6.70;99.90;;;7.42;100.00;99667.34;5068157;28;20025;-77
2022/02/06 05:38:09;;;;;;;7.55;1.92;;;6.80;99.90;;;7.37;100.00;99658.47;5068240;28;20040;-80
2022/02/06 05:40:35;;;;;;;7.03;2.50;;;6.80;99.90;;;7.44;100.00;99669.75;5067990;28;20029;-80
2022/02/06 05:43:04;;;;;;;3.88;2.00;;;6.80;99.90;;;7.40;100.00;99641.09;5066008;28;20070;-77
2022/02/06 05:45:36;;;;;;;3.47;1.40;;;6.80;99.90;;;7.43;100.00;99645.91;5064362;28;20032;-81
2022/02/06 05:48:05;;;;;;;4.72;1.92;;;6.80;99.90;;;7.37;100.00;99634.28;5047353;28;20144;-81
2022/02/06 05:50:32;;;;;;;5.53;2.08;;;6.80;99.90;;;7.38;100.00;99635.88;5067934;28;20025;-80
2022/02/06 05:53:04;;;;;;;9.77;1.80;;;6.80;99.90;;;7.37;100.00;99639.84;5065995;28;20032;-80
2022/02/06 05:55:29;;;;;;;6.57;2.08;;;6.80;99.90;;;7.33;100.00;99638.13;5047947;28;20032;-80
2022/02/06 05:57:55;;;;;;;6.88;2.15;;;6.80;99.90;;;7.34;100.00;99623.09;5066407;28;20052;-81
2022/02/06 06:00:21;;;;;;;4.95;2.30;;;6.80;99.90;;;7.34;100.00;99632.22;5068838;28;20037;-80
2022/02/06 06:02:47;;;;;;;2.95;1.85;;;6.80;99.90;;;7.27;100.00;99598.72;5066457;28;20021;-79
2022/02/06 06:05:16;;;;;;;5.78;2.92;;;6.80;99.90;;;7.38;100.00;99618.44;5048226;28;20033;-78
2022/02/06 06:07:43;;;;;;;3.25;1.85;;;6.80;99.90;;;7.38;100.00;99613.66;5049117;28;20094;-79
2022/02/06 06:10:12;;;;;;;4.07;1.70;;;6.80;99.90;;;7.30;100.00;99608.31;5051594;28;20070;-80
2022/02/06 06:12:40;;;;;;;5.95;2.30;;;6.70;99.90;;;7.34;100.00;99603.66;5047482;28;20048;-79
2022/02/06 06:15:07;;;;;;;4.18;1.77;;;6.80;99.90;;;7.36;100.00;99616.00;5046035;28;20068;-78
2022/02/06 06:17:38;;;;;;;6.95;2.30;;;6.80;99.90;;;7.37;100.00;99586.25;5064052;28;20025;-81
2022/02/06 06:20:10;;;;;;;3.42;2.03;;;6.80;99.90;;;7.36;100.00;99606.84;5064170;28;20048;-81
2022/02/06 06:22:36;;;;;;;7.82;1.80;;;6.80;99.90;;;7.39;100.00;99606.94;5064234;28;20028;-81
2022/02/06 06:25:06;;;;;;;6.35;2.10;;;6.80;99.90;;;7.33;100.00;99594.50;5046992;28;20064;-80
2022/02/06 06:27:35;;;;;;;7.15;2.38;;;6.80;99.90;;;7.38;100.00;99585.09;5081822;28;20020;-81
2022/02/06 06:30:04;;;;;;;6.82;1.92;;;6.80;99.90;;;7.40;100.00;99591.09;5066340;28;20036;-80
2022/02/06 06:32:36;;;;;;;4.68;1.70;;;6.80;99.90;;;7.38;100.00;99580.31;5083364;28;20025;-80
2022/02/06 06:35:04;;;;;;;6.50;1.90;;;6.80;99.90;;;7.39;100.00;99573.59;5066425;28;20031;-80
2022/02/06 06:37:31;;;;;;;4.25;1.73;;;6.80;99.90;;;7.44;100.00;99572.53;5083921;28;20051;-78
2022/02/06 06:39:57;;;;;;;6.95;2.00;;;6.90;99.90;;;7.41;100.00;99576.84;5083443;28;20567;-80
2022/02/06 06:42:23;;;;;;;5.38;1.98;;;6.90;99.90;;;7.48;100.00;99581.72;5081710;28;20060;-77
2022/02/06 06:44:49;;;;;;;4.18;1.48;;;6.90;99.90;;;7.43;100.00;99554.25;5080946;28;20048;-79
2022/02/06 06:47:15;;;;;;;5.57;1.95;;;6.90;99.90;;;7.53;100.00;99561.19;5063222;28;20073;-77
2022/02/06 06:49:41;;;;;;;4.35;2.00;;;6.90;99.90;;;7.48;100.00;99564.28;5080877;28;20032;-79
2022/02/06 06:52:08;;;;;;;2.75;1.75;;;6.90;99.90;;;7.46;100.00;99553.50;5080678;28;20025;-79
2022/02/06 06:54:44;;;;;;;10.13;2.42;;;6.90;99.90;;;7.54;100.00;99546.16;5063136;28;20104;-82
2022/02/06 06:57:25;;;;;;;4.35;1.77;;;7.00;99.90;;;7.55;100.00;99533.84;5063809;28;20051;-80
2022/02/06 07:04:57;;;;;;;5.03;1.73;;;6.90;99.90;;;7.54;100.00;99527.50;5094684;28;20039;-79
2022/02/06 07:07:27;;;;;;;1.95;1.40;;;7.00;99.90;;;7.62;100.00;99525.66;5071182;28;20495;-80
2022/02/06 07:09:56;;;;;;;5.50;1.67;;;7.00;99.90;;;7.61;100.00;99537.97;5070622;28;20025;-81
2022/02/06 07:12:23;;;;;;;7.57;1.30;;;7.00;99.90;;;7.58;100.00;99528.38;5087414;28;20024;-78
2022/02/06 07:14:52;;;;;;;5.38;1.88;;;7.00;99.90;;;7.53;100.00;99542.56;5087400;28;20041;-83
2022/02/06 07:17:19;;;;;;;4.80;1.30;;;7.00;99.90;;;7.57;100.00;99528.75;5067369;28;20043;-78
2022/02/06 07:19:45;;;;;;;5.60;1.45;;;7.00;99.90;;;7.67;100.00;99528.97;5066276;28;20034;-82
2022/02/06 07:22:16;;;;;;;4.20;1.88;;;7.00;99.90;;;7.67;100.00;99540.09;5083758;28;20032;-80
2022/02/06 07:24:53;;;;;;;5.07;1.50;;;7.00;99.90;;;7.70;100.00;99530.22;5083447;28;20035;-80
2022/02/06 07:27:23;;;;;;;2.65;1.50;;;7.10;99.90;;;7.67;100.00;99511.50;5066646;28;20074;-80
2022/02/06 07:29:50;;;;;;;8.32;2.15;;;7.10;99.90;;;7.68;100.00;99535.31;5062044;28;20029;-81
2022/02/06 07:32:17;;;;;;;2.90;1.60;;;7.10;99.90;;;7.68;100.00;99505.56;5059580;28;20029;-79
2022/02/06 07:34:43;;;;;;;3.28;1.65;;;7.10;99.90;;;7.67;100.00;99505.94;5061630;28;20085;-81
2022/02/06 07:37:12;;;;;;;4.20;1.42;;;7.10;99.90;;;7.72;100.00;99511.19;5061200;28;20060;-79
2022/02/06 07:39:42;;;;;;;4.03;1.50;;;7.10;99.90;;;7.60;100.00;99498.25;5064522;28;20048;-79
2022/02/06 07:42:11;;;;;;;4.63;1.75;;;7.10;99.90;;;7.64;100.00;99498.34;5070506;28;20070;-82
2022/02/06 07:44:46;;;;;;;4.85;1.67;;;7.10;99.90;;;7.64;100.00;99493.56;5049571;28;20032;-81
2022/02/06 07:47:14;;;;;;;3.85;1.85;;;7.10;99.90;;;7.66;100.00;99495.97;5064853;28;20033;-83
2022/02/06 07:49:45;;;;;;;2.30;1.55;;;7.10;99.90;;;7.73;100.00;99499.72;5048259;28;20651;-80
2022/02/06 07:52:24;;;;;;;6.32;1.95;;;7.10;99.90;;;7.80;100.00;99485.16;5065059;28;20025;-80
2022/02/06 07:54:52;;;;;;;4.22;1.75;;;7.10;99.90;;;7.75;100.00;99489.03;5064806;28;20499;-81
2022/02/06 07:57:21;;;;;;;5.88;1.83;;;7.10;99.90;;;7.68;100.00;99482.50;5060360;28;20033;-81
2022/02/06 07:59:47;;;;;;;4.95;1.70;;;7.10;99.90;;;7.64;100.00;99465.78;5043089;28;20056;-81
2022/02/06 08:02:15;;;;;;;4.93;2.00;;;7.10;99.90;;;7.75;100.00;99463.19;5060204;28;20025;-81
2022/02/06 08:04:46;;;;;;;6.68;1.73;;;7.20;99.90;;;7.72;100.00;99452.81;5057825;28;20506;-81
2022/02/06 08:07:16;;;;;;;5.70;1.70;;;7.20;99.90;;;7.77;100.00;99439.44;5041883;28;20036;-81
2022/02/06 08:09:50;;;;;;;3.00;1.73;;;7.20;99.90;;;7.74;100.00;99442.94;5060638;28;20020;-80
2022/02/06 08:12:35;;;;;;;4.47;1.80;;;7.20;99.90;;;7.70;100.00;99441.28;5062934;28;20093;-81
2022/02/06 08:15:06;;;;;;;6.30;1.95;;;7.20;99.90;;;7.75;100.00;99414.00;5060840;28;20033;-81
2022/02/06 08:17:44;;;;;;;3.63;1.60;;;7.20;99.90;;;7.67;100.00;99401.16;5061837;28;20112;-79
2022/02/06 08:20:15;;;;;;;3.63;1.50;;;7.10;99.90;;;7.72;100.00;99391.69;5063542;28;20033;-81
2022/02/06 08:22:43;;;;;;;3.00;1.70;;;7.20;99.90;;;7.74;100.00;99381.00;5063512;28;20029;-81
2022/02/06 08:25:12;;;;;;;2.35;1.42;;;7.20;99.90;;;7.80;100.00;99391.44;5061804;28;20039;-79
2022/02/06 08:27:41;;;;;;;3.28;1.30;;;7.20;99.90;;;7.80;100.00;99365.66;5080228;28;20387;-81
2022/02/06 08:30:10;;;;;;;4.15;1.35;;;7.20;99.90;;;7.75;100.00;99369.53;5083024;28;20027;-80
2022/02/06 08:32:37;;;;;;;2.67;1.30;;;7.30;99.90;;;7.74;100.00;99367.91;5080875;28;20479;-81
2022/02/06 08:35:06;;;;;;;3.15;1.48;;;7.30;99.90;;;7.83;100.00;99362.13;5081512;28;20035;-80
2022/02/06 08:37:38;;;;;;;3.35;1.05;;;7.30;99.90;;;7.83;100.00;99362.13;5080124;28;20063;-82
2022/02/06 08:40:12;;;;;;;3.58;1.40;;;7.30;99.90;;;7.80;100.00;99352.53;5064138;28;20028;-81
2022/02/06 08:42:43;;;;;;;3.10;1.30;;;7.30;99.90;;;7.84;100.00;99358.94;5087389;28;20047;-82
2022/02/06 08:45:11;;;;;;;4.78;1.45;;;7.30;99.90;;;7.92;100.00;99354.31;5065899;28;20487;-81
2022/02/06 08:47:44;;;;;;;1.17;0.90;;;7.30;99.90;;;7.88;100.00;99342.34;5084789;28;20058;-80
2022/02/06 08:50:11;;;;;;;2.90;1.20;;;7.30;99.90;;;7.91;100.00;99334.06;5085552;28;20020;-83
2022/02/06 08:52:41;;;;;;;4.30;1.42;;;7.40;99.90;;;7.89;100.00;99322.53;5085442;28;20028;-81
2022/02/06 08:55:12;;;;;;;2.28;1.00;;;7.40;99.90;;;7.86;100.00;99311.34;5084739;28;20025;-81
2022/02/06 08:57:47;;;;;;;3.40;1.27;;;7.40;99.90;;;7.91;100.00;99330.47;5084440;28;20096;-82
2022/02/06 09:00:16;;;;;;;2.58;0.80;;;7.40;99.90;;;8.01;100.00;99331.81;5090224;28;20052;-80
2022/02/06 09:02:42;;;;;;;3.40;1.10;;;7.50;99.90;;;7.94;100.00;99302.72;5088092;28;20098;-81
2022/02/06 09:05:09;;;;;;;2.60;0.90;;;7.50;99.90;;;7.97;100.00;99292.84;5067321;28;20031;-82
2022/02/06 09:07:43;;;;;;;3.78;1.00;;;7.50;99.90;;;7.93;100.00;99287.22;5082932;28;20024;-83
2022/02/06 09:10:14;;;;;;;2.63;0.90;;;7.40;99.90;;;7.92;100.00;99304.28;5085551;28;20028;-80
2022/02/06 09:12:51;;;;;;;2.38;1.05;;;7.40;99.90;;;7.90;100.00;99281.59;5084787;28;20035;-81
2022/02/06 09:15:17;;;;;;;4.22;1.17;;;7.40;99.90;;;7.94;100.00;99288.84;5084613;28;20024;-79
2022/02/06 09:17:44;;;;;;;7.65;1.50;;;7.40;99.90;;;7.92;100.00;99307.88;5084867;28;20134;-78
2022/02/06 09:20:13;;;;;;;1.98;1.00;;;7.40;99.90;;;7.89;100.00;99289.16;5086755;28;20480;-84
2022/02/06 09:22:43;;;;;;;1.55;1.08;;;7.40;99.90;;;7.93;100.00;99286.41;5083292;28;20044;-79
2022/02/06 09:25:14;;;;;;;4.25;1.20;;;7.40;99.90;;;7.92;100.00;99271.75;5066971;28;20073;-79
2022/02/06 09:27:43;;;;;;;2.22;1.30;;;7.40;99.90;;;7.83;100.00;99259.28;5046979;28;20028;-80
2022/02/06 09:30:18;;;;;;;3.38;1.25;;;7.40;99.90;;;7.92;100.00;99254.25;5063192;28;20043;-78
2022/02/06 09:35:14;;;;;;;2.22;1.30;;;7.30;99.90;;;7.87;100.00;99247.03;5067961;28;20025;-79
2022/02/06 09:37:40;;;;;;;1.17;1.08;;;7.40;99.90;;;7.91;100.00;99233.19;5065799;28;20033;-81
2022/02/06 09:40:10;;;;;;;3.67;1.20;;;7.40;99.90;;;7.94;100.00;99227.66;5063243;28;20060;-81
2022/02/06 09:42:38;;;;;;;2.88;1.17;;;7.40;99.90;;;7.92;100.00;99232.00;5062980;28;20025;-80
2022/02/06 09:45:08;;;;;;;3.22;1.25;;;7.40;99.90;;;7.90;100.00;99220.44;5065818;28;20029;-79
2022/02/06 09:47:35;;;;;;;2.03;0.93;;;7.40;99.90;;;7.96;100.00;99227.31;5048624;28;20033;-79
2022/02/06 09:50:05;;;;;;;3.92;1.23;;;7.40;99.90;;;7.99;100.00;99211.84;5068159;28;20028;-82
2022/02/06 09:52:33;;;;;;;1.42;1.00;;;7.40;99.90;;;8.02;100.00;99209.13;5054214;28;20044;-80
2022/02/06 09:55:08;;;;;;;1.25;0.77;;;7.50;99.90;;;7.96;100.00;99200.28;5051088;28;20021;-82
2022/02/06 10:00:30;;;;;;;2.55;0.70;;;7.50;99.90;;;8.01;100.00;99190.84;5012746;28;20041;-79
2022/02/06 10:03:05;;;;;;;3.08;0.65;;;7.50;99.90;;;8.05;100.00;99183.34;5071519;28;20033;-80
2022/02/06 10:05:39;;;;;;;;;;;7.50;99.90;;;8.06;100.00;99192.50;5068048;28;20040;-81
2022/02/06 10:08:45;;;;;;;2.60;0.75;;;7.50;99.90;;;7.91;100.00;99161.72;5065952;28;20391;-80
2022/02/06 10:11:18;;;;;;;2.50;0.57;;;7.50;99.90;;;7.96;100.00;99168.94;5065873;28;20048;-80
2022/02/06 10:13:46;;;;;;;0.88;0.43;;;7.50;99.90;;;8.01;100.00;99170.56;5089398;22;20127;-83
2022/02/06 10:16:17;;;;;;;1.00;0.50;;;7.50;99.90;;;8.00;100.00;99166.97;5059738;28;20020;-84
2022/02/06 10:18:45;;;;;;;0.77;0.50;;;7.50;99.90;;;7.96;100.00;99144.69;5060202;28;20036;-79
2022/02/06 10:21:22;;;;;;;1.55;0.85;;;7.50;99.90;;;7.95;100.00;99147.88;5078341;28;20037;-82
2022/02/06 10:24:06;;;;;;;2.13;0.82;;;7.40;99.90;;;7.90;100.00;99142.63;5060898;28;20029;-84
2022/02/06 10:26:53;;;;;;;0.93;0.63;;;7.40;99.90;;;7.85;100.00;99120.72;5069589;28;20090;-80
2022/02/06 10:32:00;;;;;;;1.17;0.77;;;7.40;99.90;;;7.87;100.00;99132.25;5097461;28;20024;-82
2022/02/06 10:34:30;;;;;;;0.90;0.75;;;7.40;99.90;;;7.87;100.00;99121.94;5094728;28;20039;-79
2022/02/06 10:37:21;;;;;;;1.08;0.65;;;7.30;99.90;;;7.79;100.00;99111.09;5096142;28;20448;-82
2022/02/06 10:40:05;;;;;;;2.95;1.13;;;7.30;99.90;;;7.86;100.00;99088.97;5094719;28;20100;-81
2022/02/06 10:42:39;;;;;;;2.05;0.77;;;7.30;99.90;;;7.81;100.00;99078.19;5095819;28;20079;-84
2022/02/06 10:45:26;;;;;;;0.65;0.65;;;7.30;99.90;;;7.78;100.00;99087.25;5096339;28;20059;-80
2022/02/06 10:47:57;;;;;;;2.10;1.00;;;7.20;99.90;;;7.78;100.00;99079.72;5095544;28;20035;-79
2022/02/06 10:50:33;;;;;;;1.30;0.60;;;7.20;99.90;;;7.68;100.00;99058.16;5078255;28;20110;-83
2022/02/06 10:53:10;;;;;;;0.70;0.52;;;7.20;99.90;;;7.67;100.00;99051.03;5095147;28;20050;-81
2022/02/06 10:56:04;;;;;;;1.92;1.00;;;7.20;99.90;;;7.64;100.00;99043.41;5095897;28;20024;-81
2022/02/06 10:58:34;;;;;;;1.63;0.52;;;7.20;99.90;;;7.58;100.00;99033.81;5096771;28;20440;-80
2022/02/06 11:01:29;;;;;;;0.77;0.50;;;7.10;99.90;;;7.64;100.00;99029.53;5080149;28;20490;-83
2022/02/06 11:04:18;;;;;;;1.45;0.55;;;7.10;99.90;;;7.60;100.00;99014.00;5097498;28;20039;-80
2022/02/06 11:06:48;;;;;;;1.30;0.55;;;7.10;99.90;;;7.55;100.00;98992.91;5095913;28;20101;-82
2022/02/06 11:09:30;;;;;;;0.55;0.40;;;7.10;99.90;;;7.64;100.00;98998.97;5095879;28;20114;-80
2022/02/06 11:12:00;;;;;;;0.40;0.38;;;7.10;99.90;;;7.66;100.00;98990.25;5096668;28;20032;-81
2022/02/06 11:14:30;;;;;;;2.08;0.45;;;7.10;99.90;;;7.58;100.00;98969.13;5097251;28;20028;-80
2022/02/06 11:16:58;;;;;;;0.85;0.43;;;7.10;99.90;;;7.60;100.00;98983.44;5096564;28;20038;-81
2022/02/06 11:19:24;;;;;;;0.38;0.38;;;7.10;99.90;;;7.60;100.00;98966.78;5096479;28;20024;-82
2022/02/06 11:22:12;;;;;;;1.88;0.40;;;7.10;99.90;;;7.59;100.00;98960.41;5098655;28;20039;-80
2022/02/06 11:24:39;;;;;;;3.05;0.63;;;7.10;99.90;;;7.57;100.00;98957.22;5097709;28;20019;-81
2022/02/06 11:27:11;;;;;;;1.13;0.40;;;7.10;99.90;;;7.56;100.00;98952.84;5081858;28;20066;-83
2022/02/06 11:29:42;;;;;;;2.45;0.70;;;7.10;99.90;;;7.58;100.00;98935.81;5058099;28;20024;-82
2022/02/06 11:32:08;;;;;;;1.45;0.40;;;7.00;99.90;;;7.63;100.00;98936.25;5076014;28;20107;-83
2022/02/06 11:34:42;;;;;;;1.05;0.50;;;7.00;99.90;;;7.58;100.00;98933.78;5058041;28;20028;-81
2022/02/06 11:44:30;;;;;;;1.25;0.40;;;7.10;99.90;;;7.64;100.00;98879.47;5094167;28;20031;-83
2022/02/06 11:47:23;;;;;;;0.68;0.30;;;7.10;99.90;;;7.55;100.00;98873.44;5068460;28;20037;-83
2022/02/06 11:49:57;;;;;;;0.80;0.45;;;7.10;99.90;;;7.57;100.00;98848.88;5076804;28;20476;-82
2022/02/06 11:53:03;;;;;;;0.50;0.50;;;7.00;99.90;;;7.49;100.00;98851.94;5078063;28;20032;-83
2022/02/06 11:55:50;;;;;;;0.98;0.50;;;7.00;99.90;;;7.54;100.00;98855.19;5034839;28;20399;-81
2022/02/06 11:58:34;;;;;;;1.75;0.35;;;7.00;99.90;;;7.53;100.00;98798.03;5075509;28;20074;-81
2022/02/06 12:01:06;;;;;;;0.88;0.45;;;7.00;99.90;;;7.54;100.00;98799.63;5059004;28;20112;-85
2022/02/06 12:04:20;;;;;;;0.63;0.30;;;7.00;99.90;;;7.51;100.00;98811.53;5075652;28;20032;-81
2022/02/06 12:06:46;;;;;;;1.27;0.47;;;7.00;99.90;;;7.49;100.00;98807.50;5059629;28;20055;-81
2022/02/06 12:09:20;;;;;;;1.90;0.77;;;7.00;99.90;;;7.57;100.00;98786.97;5075981;28;20460;-83
2022/02/06 12:12:07;;;;;;;2.10;0.50;;;7.10;99.90;;;7.54;100.00;98782.97;5076545;28;20066;-82
2022/02/06 12:14:41;;;;;;;0.85;0.47;;;7.00;99.90;;;7.52;100.00;98782.53;5077044;28;20056;-81
2022/02/06 12:20:06;;;;;;;0.32;0.30;;;7.10;99.90;;;7.55;100.00;98754.00;5077962;28;20121;-81
2022/02/06 12:22:38;;;;;;;0.55;0.30;;;7.10;99.90;;;7.66;100.00;98737.44;5074803;28;20028;-84
2022/02/06 12:25:35;;;;;;;0.75;0.50;;;7.10;99.90;;;7.59;100.00;98713.16;5075965;28;20100;-83
2022/02/06 12:28:16;;;;;;;0.38;0.38;;;7.10;99.90;;;7.51;100.00;98719.06;5060378;28;20032;-81
2022/02/06 12:30:44;;;;;;;1.52;0.50;;;7.10;99.90;;;7.60;100.00;98700.88;5075872;28;20094;-84
2022/02/06 12:33:51;;;;;;;1.98;0.65;;;7.10;99.90;;;7.55;100.00;98698.44;5059103;28;20066;-83
2022/02/06 12:37:08;;;;;;;0.95;0.77;;;7.00;99.90;;;7.64;100.00;98693.34;5078060;28;20025;-81
2022/02/06 12:39:36;;;;;;;1.85;0.40;;;7.10;99.90;;;7.68;100.00;98682.25;5078131;28;20029;-82
2022/02/06 12:42:08;;;;;;;0.85;0.40;;;7.10;99.90;;;7.65;100.00;98680.25;5059008;28;20434;-84
2022/02/06 12:44:36;;;;;;;0.30;0.30;;;7.20;99.90;;;7.68;100.00;98682.25;5058262;28;20028;-83
2022/02/06 12:47:18;;;;;;;0.40;0.20;;;7.20;99.90;;;7.79;100.00;98674.81;5058919;28;20100;-84
2022/02/06 12:49:51;;;;;;;0.88;0.50;;;7.30;99.90;;;7.77;100.00;98655.72;5059076;28;20024;-82
2022/02/06 12:52:17;;;;;;;0.93;0.40;;;7.30;99.90;;;7.75;100.00;98651.75;5080312;28;20024;-83
2022/02/06 12:54:44;;;;;;;1.88;0.50;;;7.30;99.90;;;7.81;100.00;98648.22;5063588;28;20078;-81
2022/02/06 12:57:18;;;;;;;0.77;0.40;;;7.30;99.90;;;7.83;100.00;98645.06;5061729;28;20051;-85
2022/02/06 12:59:45;;;;;;;0.65;0.40;;;7.30;99.90;;;7.89;100.00;98658.22;5078683;28;20086;-82
2022/02/06 13:02:22;;;;;;;0.45;0.43;;;7.40;99.90;;;7.94;100.00;98618.09;5081101;28;20347;-83
2022/02/06 13:05:13;;;;;;;1.35;0.47;;;7.40;99.90;;;7.99;100.00;98631.66;5081056;28;20025;-84
2022/02/06 13:08:09;;;;;;;1.90;0.57;;;7.40;99.90;;;8.03;100.00;98609.44;5078196;28;20132;-84
2022/02/06 13:10:56;;;;;;;0.38;0.35;;;7.50;99.90;;;8.11;100.00;98633.28;5061058;28;20032;-83